Time;durP1;ratioP1;P1;durP2;ratioP2;P2;SDS_P1;SDS_P2;PMS_P1;PMS_P2;Temp;Humidity;BMP_temperature;BMP_pressure;BME280_temperature;BME280_humidity;BME280_pressure;Samples;Min_cycle;Max_cycle;Signal;HPM_P1;HPM_P2
2022/01/19 00:00:42;;;;;;;1999.90;999.90;;;;;;;1.61;94.21;162827.38;4967320;28;20479;-67
2022/01/19 00:03:08;;;;;;;1999.90;999.90;;;;;;;1.63;94.75;162831.47;4970707;28;20463;-67
2022/01/19 00:05:38;;;;;;;1999.90;999.90;;;;;;;1.97;93.85;162921.84;4970882;28;20105;-69
2022/01/19 00:08:04;;;;;;;1999.90;999.90;;;;;;;1.76;93.65;162867.06;4970904;28;20683;-68
2022/01/19 00:10:31;;;;;;;1999.90;999.90;;;;;;;1.67;94.49;162843.78;4970972;28;20074;-68
2022/01/19 00:12:58;;;;;;;1999.90;999.90;;;;;;;1.46;94.94;162786.28;4971885;28;20078;-68
2022/01/19 00:15:27;;;;;;;1999.90;999.90;;;;;;;1.55;95.22;162812.31;4972181;28;20047;-68
2022/01/19 00:17:57;;;;;;;1999.90;999.90;;;;;;;1.63;94.83;162831.47;4969627;28;21106;-67
2022/01/19 00:20:26;;;;;;;1999.90;999.90;;;;;;;1.58;95.11;162819.16;4971400;28;20054;-68
2022/01/19 00:22:53;;;;;;;1999.90;999.90;;;;;;;1.71;94.55;162853.34;4971610;28;20086;-68
2022/01/19 00:25:21;;;;;;;1999.90;999.90;;;;;;;1.66;94.83;162839.69;4969895;28;20077;-68
2022/01/19 00:27:47;;;;;;;1999.90;999.90;;;;;;;1.64;94.89;162834.19;4971085;28;20078;-68
2022/01/19 00:30:14;;;;;;;1999.90;999.90;;;;;;;1.43;95.69;162779.47;4972177;28;20445;-68
2022/01/19 00:32:41;;;;;;;1999.90;999.90;;;;;;;1.42;96.26;162776.72;4969234;28;20042;-68
2022/01/19 00:35:09;;;;;;;1999.90;999.90;;;;;;;1.60;95.36;162823.28;4971092;28;20098;-68
2022/01/19 00:37:40;;;;;;;1999.90;999.90;;;;;;;1.19;96.45;162716.53;4972415;28;20114;-68
2022/01/19 00:40:08;;;;;;;;;;;;;;;1.10;97.63;162690.50;4970713;28;20530;-68
2022/01/19 00:42:35;;;;;;;1999.90;999.90;;;;;;;1.26;97.50;162734.28;4970203;28;19926;-68
2022/01/19 00:45:04;;;;;;;1999.90;999.90;;;;;;;1.03;98.13;162672.75;4973058;28;20122;-68
2022/01/19 00:47:31;;;;;;;1999.90;999.90;;;;;;;0.86;99.08;162627.56;4969813;28;20093;-68
2022/01/19 00:49:58;;;;;;;1999.90;999.90;;;;;;;1.11;98.00;162694.59;4970318;28;20443;-68
2022/01/19 00:52:25;;;;;;;1999.90;999.90;;;;;;;1.43;96.79;162778.06;4972637;28;20082;-68
2022/01/19 00:54:51;;;;;;;1999.90;999.90;;;;;;;1.23;96.89;162727.44;4970992;28;20046;-68
2022/01/19 00:57:18;;;;;;;1999.90;999.90;;;;;;;1.40;96.43;162772.63;4971650;28;20042;-68
2022/01/19 00:59:44;;;;;;;1999.90;999.90;;;;;;;1.24;97.64;162728.84;4971831;28;20367;-68
2022/01/19 01:02:11;;;;;;;1999.90;999.90;;;;;;;1.56;96.47;162813.66;4970973;28;20058;-68
2022/01/19 01:04:38;;;;;;;1999.90;999.90;;;;;;;1.59;95.51;162821.88;4970851;28;20057;-68
2022/01/19 01:07:04;;;;;;;1999.90;999.90;;;;;;;1.71;95.31;162854.75;4971101;28;20089;-68
2022/01/19 01:09:31;;;;;;;1999.90;999.90;;;;;;;1.99;94.22;162928.66;4970313;28;20112;-68
2022/01/19 01:12:22;;;;;;;1999.90;999.90;;;;;;;1.75;94.82;162865.66;4969582;28;20148;-68
2022/01/19 01:20:20;;;;;;;1999.90;999.90;;;;;;;1.27;97.44;162735.69;4970802;28;20262;-68
2022/01/19 01:22:47;;;;;;;1999.90;999.90;;;;;;;0.87;98.97;162630.31;4970218;28;20109;-68
2022/01/19 01:25:14;;;;;;;1999.90;999.90;;;;;;;0.79;99.12;162609.81;4970371;28;20089;-68
2022/01/19 01:27:41;;;;;;;1999.90;999.90;;;;;;;0.85;99.11;162624.88;4978577;28;20070;-68
2022/01/19 01:30:09;;;;;;;1999.90;999.90;;;;;;;1.22;98.22;162723.31;4971332;28;20129;-68
2022/01/19 01:32:35;;;;;;;1999.90;999.90;;;;;;;1.13;98.42;162698.72;4970095;28;20074;-68
2022/01/19 01:35:04;;;;;;;1999.90;999.90;;;;;;;1.01;98.88;162667.25;4971715;28;20050;-69
2022/01/19 01:37:31;;;;;;;1999.90;999.90;;;;;;;0.90;98.97;162638.53;4967881;28;20061;-68
2022/01/19 01:40:00;;;;;;;1999.90;999.90;;;;;;;0.71;100.00;162587.91;4967696;28;20403;-68
2022/01/19 01:42:27;;;;;;;1999.90;999.90;;;;;;;0.92;99.16;162643.97;4970168;28;20051;-68
2022/01/19 01:44:58;;;;;;;1999.90;999.90;;;;;;;0.97;99.03;162657.69;4969054;28;20090;-68
2022/01/19 01:47:26;;;;;;;1999.90;999.90;;;;;;;1.14;97.94;162702.81;4970073;28;23277;-68
2022/01/19 01:55:12;;;;;;;1999.90;999.90;;;;;;;1.11;97.49;162694.59;4962359;28;20078;-68
2022/01/19 01:57:39;;;;;;;1999.90;999.90;;;;;;;1.29;97.73;162742.50;4972365;28;20109;-68
2022/01/19 02:00:08;;;;;;;1999.90;999.90;;;;;;;1.12;97.77;162697.34;4969061;28;20371;-66
2022/01/19 02:02:35;;;;;;;1999.90;999.90;;;;;;;1.25;97.91;162730.19;4946228;28;20082;-67
2022/01/19 02:05:03;;;;;;;1999.90;999.90;;;;;;;0.98;98.24;162659.03;4972368;28;20055;-67
2022/01/19 02:07:40;;;;;;;1999.90;999.90;;;;;;;0.89;98.59;162635.78;4976222;28;20046;-68
2022/01/19 02:10:15;;;;;;;1999.90;999.90;;;;;;;0.78;99.20;162605.69;4971421;28;20394;-67
2022/01/19 02:23:53;;;;;;;1999.90;999.90;;;;;;;0.72;98.82;162590.66;4969109;28;20495;-66
2022/01/19 02:26:30;;;;;;;1999.90;999.90;;;;;;;0.80;99.16;162611.16;4971936;28;20074;-68
2022/01/19 02:29:03;;;;;;;1999.90;999.90;;;;;;;0.87;98.22;162630.31;4968892;28;20110;-67
2022/01/19 02:42:51;;;;;;;1999.90;999.90;;;;;;;1.21;96.97;162720.63;4968997;28;20047;-67
2022/01/19 02:50:32;;;;;;;1999.90;999.90;;;;;;;1.13;95.58;162698.72;4971253;28;20416;-68
2022/01/19 02:52:59;;;;;;;1999.90;999.90;;;;;;;0.95;96.45;162650.81;4973185;28;20074;-68
2022/01/19 02:55:26;;;;;;;1999.90;999.90;;;;;;;0.95;97.03;162652.19;4971360;28;20059;-68
2022/01/19 02:57:52;;;;;;;1999.90;999.90;;;;;;;1.35;95.98;162758.91;4969181;28;20046;-68
2022/01/19 03:08:45;;;;;;;1999.90;999.90;;;;;;;1.61;93.54;162827.38;4969140;28;20055;-66
2022/01/19 03:11:17;;;;;;;1999.90;999.90;;;;;;;1.73;93.07;162860.22;4968056;28;20058;-67
2022/01/19 03:13:45;;;;;;;1999.90;999.90;;;;;;;1.57;92.80;162816.41;4967343;28;20078;-67
2022/01/19 03:16:12;;;;;;;1999.90;999.90;;;;;;;1.57;92.92;162816.41;4966682;28;20078;-67
2022/01/19 03:18:39;;;;;;;1999.90;999.90;;;;;;;1.76;92.04;162868.41;4959074;28;21405;-67
2022/01/19 03:21:07;;;;;;;1999.90;999.90;;;;;;;1.55;92.44;162810.94;4970015;28;20065;-67
2022/01/19 03:23:34;;;;;;;1999.90;999.90;;;;;;;1.35;93.24;162758.91;4965839;28;20050;-67
2022/01/19 03:26:06;;;;;;;1999.90;999.90;;;;;;;1.18;94.02;162713.78;4968600;28;20089;-68
2022/01/19 03:28:36;;;;;;;1999.90;999.90;;;;;;;1.25;93.43;162730.19;4970290;28;20062;-68
2022/01/19 03:31:04;;;;;;;1999.90;999.90;;;;;;;1.27;93.19;162737.03;4966131;28;20046;-67
2022/01/19 03:33:31;;;;;;;1999.90;999.90;;;;;;;1.07;94.08;162682.28;4967120;28;20081;-67
2022/01/19 03:35:58;;;;;;;1999.90;999.90;;;;;;;1.03;94.46;162674.09;4976558;28;20055;-67
2022/01/19 03:38:24;;;;;;;1999.90;999.90;;;;;;;1.20;93.65;162717.88;4967466;28;20043;-66
2022/01/19 03:40:51;;;;;;;1999.90;999.90;;;;;;;1.04;93.82;162676.84;4966609;28;20078;-67
2022/01/19 03:43:18;;;;;;;1999.90;999.90;;;;;;;1.01;93.58;162668.63;4979855;28;20134;-67
2022/01/19 03:45:51;;;;;;;1999.90;999.90;;;;;;;0.94;94.35;162648.06;4968317;28;20477;-67
2022/01/19 03:50:46;;;;;;;1999.90;999.90;;;;;;;0.95;94.11;162650.81;4966184;28;20351;-68
2022/01/19 03:53:13;;;;;;;1999.90;999.90;;;;;;;1.01;93.52;162667.25;4968133;28;20513;-68
2022/01/19 03:55:40;;;;;;;1999.90;999.90;;;;;;;1.08;93.20;162685.06;4967518;28;20093;-68
2022/01/19 03:58:06;;;;;;;1999.90;999.90;;;;;;;0.85;93.61;162626.22;4971574;28;20075;-67
2022/01/19 04:00:35;;;;;;;1999.90;999.90;;;;;;;0.92;93.46;162642.63;4968316;28;20086;-68
2022/01/19 04:03:05;;;;;;;1999.90;999.90;;;;;;;0.97;92.91;162657.69;4966721;28;20047;-67
2022/01/19 04:08:07;;;;;;;1999.90;999.90;;;;;;;0.82;94.06;162618.00;4967690;28;20086;-67
2022/01/19 04:10:33;;;;;;;1999.90;999.90;;;;;;;1.03;93.01;162674.09;4966507;28;20113;-67
2022/01/19 04:13:22;;;;;;;1999.90;999.90;;;;;;;0.79;93.47;162609.81;4967638;28;20105;-68
2022/01/19 04:15:49;;;;;;;1999.90;999.90;;;;;;;0.88;93.15;162633.06;4968585;28;20439;-68
2022/01/19 04:18:16;;;;;;;1999.90;999.90;;;;;;;0.75;93.50;162598.84;4972707;28;20160;-68
2022/01/19 04:20:47;;;;;;;1999.90;999.90;;;;;;;0.77;93.07;162602.94;4967185;28;20112;-68
2022/01/19 04:23:15;;;;;;;1999.90;999.90;;;;;;;0.76;93.21;162601.59;4968258;28;20102;-67
2022/01/19 04:25:42;;;;;;;1999.90;999.90;;;;;;;0.92;92.83;162643.97;4967022;28;20082;-67
2022/01/19 04:28:09;;;;;;;1999.90;999.90;;;;;;;1.09;91.42;162689.16;4965986;28;20102;-67
2022/01/19 04:30:37;;;;;;;1999.90;999.90;;;;;;;1.04;91.63;162675.44;4966470;28;20094;-67
2022/01/19 04:33:11;;;;;;;1999.90;999.90;;;;;;;1.07;91.45;162682.28;4967304;28;20113;-67
2022/01/19 04:35:54;;;;;;;1999.90;999.90;;;;;;;0.82;91.93;162616.59;4966983;28;20054;-67
2022/01/19 05:05:21;;;;;;;1999.90;999.90;;;;;;;-0.02;94.39;162393.72;4969670;28;20412;-67
2022/01/19 05:15:45;;;;;;;1999.90;999.90;;;;;;;0.04;94.41;162408.78;4969545;28;20058;-67
2022/01/19 05:18:12;;;;;;;1999.90;999.90;;;;;;;-0.38;95.38;162299.38;4969885;28;20458;-67
2022/01/19 05:20:39;;;;;;;1999.90;999.90;;;;;;;-0.11;95.11;162370.47;4965497;28;20059;-67
2022/01/19 05:23:05;;;;;;;1999.90;999.90;;;;;;;-0.08;94.96;162377.31;4968818;28;20210;-67
2022/01/19 05:25:32;;;;;;;1999.90;999.90;;;;;;;-0.45;95.90;162280.25;4970457;28;20078;-67
2022/01/19 05:27:58;;;;;;;1999.90;999.90;;;;;;;-0.32;95.74;162313.09;4969184;28;20129;-67
2022/01/19 05:30:25;;;;;;;1999.90;999.90;;;;;;;-0.14;95.56;162360.94;4966091;28;20470;-67
2022/01/19 05:32:51;;;;;;;1999.90;999.90;;;;;;;-0.27;94.95;162326.72;4969631;28;20065;-67
2022/01/19 05:35:18;;;;;;;1999.90;999.90;;;;;;;-0.57;96.15;162247.47;4967918;28;20073;-67
2022/01/19 05:37:44;;;;;;;1999.90;999.90;;;;;;;-0.25;96.04;162332.22;4968268;28;20070;-68
2022/01/19 05:40:15;;;;;;;1999.90;999.90;;;;;;;-0.59;96.16;162242.03;4970599;28;20074;-67
2022/01/19 05:42:42;;;;;;;1999.90;999.90;;;;;;;-0.47;95.38;162273.47;4969572;28;20078;-67
2022/01/19 05:45:09;;;;;;;1999.90;999.90;;;;;;;-0.41;95.84;162289.84;4969805;28;20054;-67
2022/01/19 05:47:36;;;;;;;1999.90;999.90;;;;;;;-0.17;95.02;162354.06;4970758;28;20086;-68
2022/01/19 05:50:03;;;;;;;1999.90;999.90;;;;;;;-0.20;94.15;162345.88;4968365;28;20078;-68
2022/01/19 05:52:30;;;;;;;1999.90;999.90;;;;;;;-0.36;95.15;162304.88;4969140;28;20322;-68
2022/01/19 05:54:56;;;;;;;1999.90;999.90;;;;;;;-0.31;95.18;162315.78;4970278;28;20097;-67
2022/01/19 05:57:23;;;;;;;1999.90;999.90;;;;;;;-0.12;93.96;162367.78;4969478;28;20039;-68
2022/01/19 05:59:50;;;;;;;1999.90;999.90;;;;;;;-0.48;94.82;162272.06;4968524;28;20090;-67
2022/01/19 06:02:16;;;;;;;1999.90;999.90;;;;;;;-0.39;95.17;162296.69;4970503;28;20082;-67
2022/01/19 06:04:43;;;;;;;1999.90;999.90;;;;;;;-0.57;95.46;162247.47;4968915;28;20073;-67
2022/01/19 06:07:11;;;;;;;1999.90;999.90;;;;;;;-0.51;95.54;162262.50;4969514;28;20318;-68
2022/01/19 06:12:13;;;;;;;1999.90;999.90;;;;;;;-0.28;94.45;162324.00;4969485;28;20082;-68
2022/01/19 06:14:42;;;;;;;1999.90;999.90;;;;;;;-0.37;94.41;162300.78;4968174;28;20044;-68
2022/01/19 06:17:11;;;;;;;1999.90;999.90;;;;;;;-0.41;95.17;162289.84;4970210;28;20113;-68
2022/01/19 06:19:39;;;;;;;1999.90;999.90;;;;;;;-0.11;93.97;162370.47;4969328;28;20293;-67
2022/01/19 06:22:05;;;;;;;1999.90;999.90;;;;;;;-0.33;93.99;162310.34;4968710;28;20088;-68
2022/01/19 06:24:32;;;;;;;1999.90;999.90;;;;;;;-0.66;94.41;162222.88;4968935;28;20105;-68
2022/01/19 06:26:58;;;;;;;1999.90;999.90;;;;;;;-0.80;96.09;162187.34;4969289;28;20046;-68
2022/01/19 06:29:26;;;;;;;1999.90;999.90;;;;;;;-0.77;95.97;162194.19;4968566;28;20252;-68
2022/01/19 06:31:52;;;;;;;1999.90;999.90;;;;;;;-1.11;96.51;162105.38;4969858;28;20077;-68
2022/01/19 06:34:19;;;;;;;1999.90;999.90;;;;;;;-1.10;98.06;162108.13;4970118;28;20187;-67
2022/01/19 06:36:45;;;;;;;1999.90;999.90;;;;;;;-1.08;97.75;162112.22;4969716;28;20144;-67
2022/01/19 06:39:12;;;;;;;1999.90;999.90;;;;;;;-1.27;99.88;162063.00;4971302;28;20074;-67
2022/01/19 06:41:38;;;;;;;1999.90;999.90;;;;;;;-1.26;99.57;162064.41;4969626;28;20514;-67
2022/01/19 06:44:05;;;;;;;1999.90;999.90;;;;;;;-1.71;100.00;161944.22;4970089;28;20192;-67
2022/01/19 06:46:32;;;;;;;1999.90;999.90;;;;;;;-1.60;100.00;161975.63;4973304;28;20065;-67
2022/01/19 06:48:59;;;;;;;1999.90;999.90;;;;;;;-1.59;100.00;161977.03;4971446;28;20107;-68
2022/01/19 06:51:26;;;;;;;1999.90;999.90;;;;;;;-1.98;100.00;161874.63;4969341;28;20051;-67
2022/01/19 06:53:52;;;;;;;1999.90;999.90;;;;;;;-2.04;100.00;161856.84;4970949;28;20341;-68
2022/01/19 06:56:19;;;;;;;1999.90;999.90;;;;;;;-1.94;100.00;161884.16;4970165;28;20058;-68
2022/01/19 06:58:46;;;;;;;1999.90;999.90;;;;;;;-2.01;100.00;161866.44;4969419;28;20050;-69
2022/01/19 07:01:13;;;;;;;1999.90;999.90;;;;;;;-2.14;100.00;161832.28;4970350;28;20250;-68
2022/01/19 07:03:40;;;;;;;1999.90;999.90;;;;;;;-2.02;100.00;161862.34;4970246;28;20065;-68
2022/01/19 07:06:07;;;;;;;1999.90;999.90;;;;;;;-1.77;100.00;161930.59;4969540;28;20086;-68
2022/01/19 07:08:34;;;;;;;1999.90;999.90;;;;;;;-1.52;100.00;161996.16;4970044;28;20317;-68
2022/01/19 07:11:00;;;;;;;1999.90;999.90;;;;;;;-1.55;100.00;161987.91;4970661;28;20058;-68
2022/01/19 07:13:27;;;;;;;1999.90;999.90;;;;;;;-1.70;100.00;161946.97;4968606;28;20078;-68
2022/01/19 07:15:54;;;;;;;1999.90;999.90;;;;;;;-1.71;100.00;161945.63;4970026;28;20450;-67
2022/01/19 07:18:20;;;;;;;1999.90;999.90;;;;;;;-1.62;100.00;161968.84;4970322;28;20120;-67
2022/01/19 07:20:47;;;;;;;1999.90;999.90;;;;;;;-1.62;100.00;161968.84;4969264;28;20271;-67
2022/01/19 07:23:13;;;;;;;1999.90;999.90;;;;;;;-1.46;100.00;162011.13;4969378;28;20078;-67
2022/01/19 07:25:40;;;;;;;1999.90;999.90;;;;;;;-1.34;100.00;162042.53;4978503;28;20496;-67
2022/01/19 07:28:10;;;;;;;1999.90;999.90;;;;;;;-1.54;100.00;161990.66;4968751;28;20078;-68
2022/01/19 07:30:38;;;;;;;1999.90;999.90;;;;;;;-1.19;100.00;162083.53;4972377;28;20416;-67
2022/01/19 07:33:05;;;;;;;1999.90;999.90;;;;;;;-1.47;100.00;162009.78;4970667;28;20499;-68
2022/01/19 07:35:31;;;;;;;1999.90;999.90;;;;;;;-1.38;100.00;162031.66;4968497;28;20051;-68
2022/01/19 07:37:58;;;;;;;1999.90;999.90;;;;;;;-1.42;100.00;162023.41;4969090;28;20196;-68
2022/01/19 07:40:25;;;;;;;1999.90;999.90;;;;;;;-1.36;100.00;162037.09;4970301;28;20105;-68
2022/01/19 07:42:52;;;;;;;1999.90;999.90;;;;;;;-1.57;100.00;161981.13;4968504;28;20074;-69
2022/01/19 07:45:18;;;;;;;1999.90;999.90;;;;;;;-1.47;100.00;162009.78;4969608;28;20078;-68
2022/01/19 07:47:45;;;;;;;1999.90;999.90;;;;;;;-1.52;100.00;161996.16;4970838;28;20121;-69
2022/01/19 07:50:13;;;;;;;1999.90;999.90;;;;;;;-1.39;100.00;162028.91;4969433;28;20059;-68
2022/01/19 07:52:39;;;;;;;1999.90;999.90;;;;;;;-1.52;100.00;161996.16;4968917;28;20050;-69
2022/01/19 07:55:06;;;;;;;1999.90;999.90;;;;;;;-1.36;100.00;162037.09;4972070;28;20054;-69
2022/01/19 07:57:33;;;;;;;1999.90;999.90;;;;;;;-1.26;100.00;162064.41;4968450;28;20043;-69
2022/01/19 07:59:59;;;;;;;1999.90;999.90;;;;;;;-1.19;100.00;162082.16;4969167;28;20439;-68
2022/01/19 08:02:32;;;;;;;1999.90;999.90;;;;;;;-0.99;100.00;162135.44;4971371;28;20046;-68
2022/01/19 08:04:59;;;;;;;1999.90;999.90;;;;;;;-0.81;100.00;162184.59;4968992;28;20054;-68
2022/01/19 08:07:26;;;;;;;1999.90;999.90;;;;;;;-0.49;100.00;162269.34;4968397;28;20051;-68
2022/01/19 08:09:52;;;;;;;1999.90;999.90;;;;;;;0.14;100.00;162436.13;4969248;28;20443;-68
2022/01/19 08:12:19;;;;;;;1999.90;999.90;;;;;;;-0.03;99.93;162392.38;4968200;28;20137;-68
2022/01/19 08:14:46;;;;;;;1999.90;999.90;;;;;;;-0.34;100.00;162307.59;4968887;28;20046;-68
2022/01/19 08:17:13;;;;;;;1999.90;999.90;;;;;;;-0.34;100.00;162309.00;4970892;28;20082;-68
2022/01/19 08:19:40;;;;;;;1999.90;999.90;;;;;;;0.01;100.00;162400.56;4967866;28;20046;-68
2022/01/19 08:22:06;;;;;;;1999.90;999.90;;;;;;;0.00;100.00;162399.22;4968533;28;20057;-68
2022/01/19 08:24:33;;;;;;;1999.90;999.90;;;;;;;-0.07;100.00;162380.06;4972984;28;20125;-68
2022/01/19 08:27:05;;;;;;;1999.90;999.90;;;;;;;0.10;100.00;162426.50;4972249;28;20436;-68
2022/01/19 08:29:32;;;;;;;1999.90;999.90;;;;;;;0.33;100.00;162488.06;4972515;28;20050;-68
2022/01/19 08:31:59;;;;;;;1999.90;999.90;;;;;;;0.05;100.00;162411.50;4972791;28;20058;-68
2022/01/19 08:34:46;;;;;;;1999.90;999.90;;;;;;;0.04;100.00;162408.78;4972187;28;20166;-68
2022/01/19 08:37:15;;;;;;;1999.90;999.90;;;;;;;-0.01;100.00;162397.81;4971672;28;20105;-68
2022/01/19 08:39:45;;;;;;;1999.90;999.90;;;;;;;0.05;100.00;162411.50;4972153;28;20058;-68
2022/01/19 08:42:13;;;;;;;1999.90;999.90;;;;;;;0.37;100.00;162496.28;4973253;28;20055;-69
2022/01/19 08:44:40;;;;;;;1999.90;999.90;;;;;;;0.26;100.00;162467.56;4971136;28;20396;-68
2022/01/19 08:47:07;;;;;;;1999.90;999.90;;;;;;;0.01;100.00;162400.56;4972438;28;20110;-68
2022/01/19 08:49:51;;;;;;;1999.90;999.90;;;;;;;-0.08;100.00;162377.31;4968409;28;20043;-68
2022/01/19 08:52:19;;;;;;;1999.90;999.90;;;;;;;-0.10;100.00;162373.22;4972250;28;20055;-68
2022/01/19 08:54:47;;;;;;;1999.90;999.90;;;;;;;0.16;100.00;162442.97;4971741;28;20328;-68
2022/01/19 08:57:13;;;;;;;1999.90;999.90;;;;;;;0.20;100.00;162452.53;4973545;28;20090;-69
2022/01/19 08:59:40;;;;;;;1999.90;999.90;;;;;;;0.06;100.00;162414.22;4972072;28;20050;-69
2022/01/19 09:02:07;;;;;;;1999.90;999.90;;;;;;;0.48;100.00;162526.38;4971455;28;20051;-69
2022/01/19 09:04:33;;;;;;;1999.90;999.90;;;;;;;0.44;100.00;162516.78;4972440;28;20137;-69
2022/01/19 09:07:01;;;;;;;1999.90;999.90;;;;;;;0.11;100.00;162429.25;4972232;28;20063;-67
2022/01/19 09:09:27;;;;;;;1999.90;999.90;;;;;;;0.13;100.00;162434.72;4971303;28;20054;-67
2022/01/19 09:11:54;;;;;;;1999.90;999.90;;;;;;;0.35;100.00;162492.16;4972412;28;20054;-68
2022/01/19 09:14:21;;;;;;;1999.90;999.90;;;;;;;0.32;100.00;162485.31;4972302;28;20058;-67
2022/01/19 09:16:50;;;;;;;1999.90;999.90;;;;;;;0.75;100.00;162597.50;4970548;28;20078;-67
2022/01/19 09:19:19;;;;;;;1999.90;999.90;;;;;;;0.42;100.00;162511.31;4971642;28;20069;-68
2022/01/19 09:21:47;;;;;;;1999.90;999.90;;;;;;;0.38;100.00;162499.03;4972198;28;20062;-68
2022/01/19 09:24:13;;;;;;;1999.90;999.90;;;;;;;0.42;100.00;162509.97;4972032;28;20082;-68
2022/01/19 09:26:40;;;;;;;1999.90;999.90;;;;;;;0.67;100.00;162576.94;4972187;28;20375;-67
2022/01/19 09:29:07;;;;;;;1999.90;999.90;;;;;;;1.19;100.00;162716.53;4971109;28;20106;-67
2022/01/19 09:31:35;;;;;;;1999.90;999.90;;;;;;;1.40;99.39;162772.63;4969646;28;20050;-67
2022/01/19 09:34:11;;;;;;;1999.90;999.90;;;;;;;0.98;100.00;162659.03;4968698;28;20055;-68
2022/01/19 09:36:46;;;;;;;1999.90;999.90;;;;;;;0.85;100.00;162626.22;4975683;28;20050;-67
2022/01/19 09:39:17;;;;;;;1999.90;999.90;;;;;;;0.78;100.00;162607.06;4970254;28;20087;-67
2022/01/19 09:41:46;;;;;;;1999.90;999.90;;;;;;;0.72;100.00;162589.28;4970739;28;20110;-67
2022/01/19 09:44:13;;;;;;;1999.90;999.90;;;;;;;0.60;100.00;162559.19;4972064;28;20078;-68
2022/01/19 09:46:40;;;;;;;1999.90;999.90;;;;;;;0.46;100.00;162520.88;4971922;28;20093;-69
2022/01/19 09:49:07;;;;;;;1999.90;999.90;;;;;;;0.27;100.00;162471.66;4970928;28;20057;-68
2022/01/19 09:51:34;;;;;;;1999.90;999.90;;;;;;;0.39;100.00;162501.72;4971957;28;20055;-68
2022/01/19 09:54:01;;;;;;;1999.90;999.90;;;;;;;1.23;100.00;162726.06;4970493;28;20090;-69
2022/01/19 09:56:28;;;;;;;1999.90;999.90;;;;;;;0.26;100.00;162468.91;4969081;28;20054;-69
2022/01/19 09:58:55;;;;;;;1999.90;999.90;;;;;;;0.46;100.00;162520.88;4971075;28;20336;-68
2022/01/19 10:01:23;;;;;;;1999.90;999.90;;;;;;;0.40;100.00;162504.47;4971466;28;20051;-69
2022/01/19 10:03:51;;;;;;;1999.90;999.90;;;;;;;0.72;100.00;162589.28;4970335;28;20050;-69
2022/01/19 10:06:23;;;;;;;1999.90;999.90;;;;;;;0.68;100.00;162581.03;4971532;28;20050;-69
2022/01/19 10:08:56;;;;;;;1999.90;999.90;;;;;;;0.78;100.00;162605.69;4974995;28;20085;-66
2022/01/19 10:17:07;;;;;;;1999.90;999.90;;;;;;;0.66;100.00;162575.59;4971164;28;20505;-67
2022/01/19 10:19:45;;;;;;;1999.90;999.90;;;;;;;0.42;100.00;162511.31;4970098;28;20051;-68
2022/01/19 10:22:23;;;;;;;1999.90;999.90;;;;;;;0.63;100.00;162567.38;4971384;28;20133;-67
2022/01/19 10:25:03;;;;;;;1999.90;999.90;;;;;;;0.87;99.81;162631.66;4974497;28;20093;-68
2022/01/19 10:27:45;;;;;;;1999.90;999.90;;;;;;;1.02;99.03;162671.34;4970335;28;20083;-68
2022/01/19 10:30:21;;;;;;;1999.90;999.90;;;;;;;1.11;99.49;162693.25;4975941;28;20050;-68
2022/01/19 10:32:50;;;;;;;1999.90;999.90;;;;;;;0.65;99.83;162571.50;4967524;28;20054;-68
2022/01/19 10:35:24;;;;;;;1999.90;999.90;;;;;;;0.88;99.39;162633.06;4976072;28;20051;-67
2022/01/19 10:38:09;;;;;;;1999.90;999.90;;;;;;;0.73;99.85;162593.41;4970831;28;20043;-67
2022/01/19 10:40:38;;;;;;;1999.90;999.90;;;;;;;0.81;99.34;162613.91;4968831;28;20178;-67
2022/01/19 10:43:27;;;;;;;1999.90;999.90;;;;;;;0.79;97.95;162609.81;4970597;28;20082;-68
2022/01/19 10:45:55;;;;;;;1999.90;999.90;;;;;;;0.76;98.81;162600.19;4971806;28;20047;-67
2022/01/19 10:48:36;;;;;;;1999.90;999.90;;;;;;;0.64;99.38;162568.72;4969710;28;20456;-67
2022/01/19 10:51:15;;;;;;;1999.90;999.90;;;;;;;0.70;99.05;162585.19;4969395;28;20097;-68
2022/01/19 10:53:45;;;;;;;1999.90;999.90;;;;;;;1.13;97.90;162698.72;4966213;28;20082;-68
2022/01/19 10:56:28;;;;;;;1999.90;999.90;;;;;;;0.91;97.47;162639.88;4969887;28;20077;-68
2022/01/19 10:58:54;;;;;;;1999.90;999.90;;;;;;;1.14;97.44;162702.81;4970483;28;20043;-67
2022/01/19 11:01:59;;;;;;;1999.90;999.90;;;;;;;1.28;96.89;162739.78;4969951;28;20788;-67
2022/01/19 11:04:34;;;;;;;1999.90;999.90;;;;;;;1.28;95.34;162739.78;4969690;28;20065;-67
2022/01/19 11:07:19;;;;;;;1999.90;999.90;;;;;;;1.43;95.69;162778.06;4970127;28;20087;-67
2022/01/19 11:09:56;;;;;;;1999.90;999.90;;;;;;;1.96;94.61;162920.44;4967320;28;20140;-67
2022/01/19 11:12:28;;;;;;;1999.90;999.90;;;;;;;1.92;93.20;162910.88;4968859;28;20050;-67
2022/01/19 11:14:54;;;;;;;1999.90;999.90;;;;;;;1.45;94.36;162783.59;4969818;28;20432;-67
2022/01/19 11:17:36;;;;;;;1999.90;999.90;;;;;;;1.54;94.54;162808.19;4969318;28;20051;-67
2022/01/19 11:20:08;;;;;;;1999.90;999.90;;;;;;;2.02;93.17;162936.84;4969141;28;20046;-67
2022/01/19 11:23:15;;;;;;;1999.90;999.90;;;;;;;1.86;92.89;162893.06;4970600;28;20050;-67
2022/01/19 11:25:57;;;;;;;1999.90;999.90;;;;;;;1.89;92.79;162901.25;4968449;28;20133;-67
2022/01/19 11:28:46;;;;;;;1999.90;999.90;;;;;;;1.57;94.03;162816.41;4968745;28;20439;-67
2022/01/19 11:31:38;;;;;;;1999.90;999.90;;;;;;;1.58;94.64;162820.50;4961947;28;20042;-67
2022/01/19 11:34:05;;;;;;;1999.90;999.90;;;;;;;1.72;94.64;162857.47;4965937;28;20358;-67
2022/01/19 11:36:36;;;;;;;1999.90;999.90;;;;;;;1.82;92.60;162882.13;4967456;28;20105;-68
2022/01/19 11:39:11;;;;;;;1999.90;999.90;;;;;;;1.42;94.59;162775.38;4968087;28;20046;-67
2022/01/19 11:41:47;;;;;;;1999.90;999.90;;;;;;;1.40;95.17;162771.25;4968630;28;20054;-68
2022/01/19 11:44:20;;;;;;;1999.90;999.90;;;;;;;1.48;94.42;162793.13;4968982;28;20222;-68
2022/01/19 11:46:49;;;;;;;1999.90;999.90;;;;;;;1.37;94.11;162764.41;4968559;28;20090;-68
2022/01/19 11:49:38;;;;;;;1999.90;999.90;;;;;;;1.63;93.54;162832.81;4968607;28;20142;-67
2022/01/19 11:52:04;;;;;;;1999.90;999.90;;;;;;;1.62;92.63;162830.06;4965486;28;20059;-68
2022/01/19 11:54:33;;;;;;;1999.90;999.90;;;;;;;1.31;92.38;162748.00;4969655;28;20081;-68
2022/01/19 11:57:03;;;;;;;1999.90;999.90;;;;;;;1.45;92.42;162783.59;4963898;28;20083;-67
2022/01/19 11:59:48;;;;;;;1999.90;999.90;;;;;;;1.50;92.98;162798.59;4968927;28;20081;-68
2022/01/19 12:02:20;;;;;;;1999.90;999.90;;;;;;;1.64;92.12;162835.59;4968858;28;20105;-68
2022/01/19 12:05:10;;;;;;;1999.90;999.90;;;;;;;1.73;91.89;162860.22;4968245;28;20054;-67
2022/01/19 12:07:39;;;;;;;1999.90;999.90;;;;;;;2.13;90.44;162964.25;4967037;28;20117;-68
2022/01/19 12:10:12;;;;;;;1999.90;999.90;;;;;;;2.55;89.64;163076.56;4962771;28;20082;-67
2022/01/19 12:12:57;;;;;;;1999.90;999.90;;;;;;;2.29;90.29;163009.47;4968438;28;20061;-68
2022/01/19 12:15:46;;;;;;;1999.90;999.90;;;;;;;2.17;89.89;162976.56;4965772;28;20085;-68
2022/01/19 12:18:48;;;;;;;1999.90;999.90;;;;;;;2.54;89.82;163073.81;4967714;28;20094;-68
2022/01/19 12:21:36;;;;;;;1999.90;999.90;;;;;;;2.72;88.72;163123.09;4965899;28;20085;-68
2022/01/19 12:24:30;;;;;;;1999.90;999.90;;;;;;;2.29;88.79;163008.06;4968207;28;20081;-67
2022/01/19 12:27:08;;;;;;;1999.90;999.90;;;;;;;1.94;90.35;162914.97;4968333;28;20086;-68
2022/01/19 12:29:36;;;;;;;1999.90;999.90;;;;;;;2.02;89.72;162936.84;4967656;28;20428;-69
2022/01/19 12:32:17;;;;;;;1999.90;999.90;;;;;;;2.07;89.16;162949.19;4968279;28;20055;-68
2022/01/19 12:34:50;;;;;;;1999.90;999.90;;;;;;;1.72;90.28;162857.47;4971965;28;20313;-69
2022/01/19 12:37:32;;;;;;;1999.90;999.90;;;;;;;1.91;90.17;162908.13;4966969;28;20059;-68